Time;durP1;ratioP1;P1;durP2;ratioP2;P2;SDS_P1;SDS_P2;PMS_P1;PMS_P2;Temp;Humidity;BMP_temperature;BMP_pressure;BME280_temperature;BME280_humidity;BME280_pressure;Samples;Min_cycle;Max_cycle;Signal;HPM_P1;HPM_P2
2022/05/16 00:01:51;;;;;;;;;;;14.50;99.90;;;;;;5040818;28;19978;-62
2022/05/16 00:04:17;;;;;;;;;;;14.50;99.90;;;;;;5037727;28;19917;-62
2022/05/16 00:06:42;;;;;;;;;;;14.30;99.90;;;;;;5048919;28;19917;-62
2022/05/16 00:09:08;;;;;;;;;;;14.20;99.90;;;;;;5037595;28;19919;-62
2022/05/16 00:11:34;;;;;;;;;;;14.00;99.90;;;;;;5031520;28;20407;-62
2022/05/16 00:13:59;;;;;;;;;;;14.00;99.90;;;;;;5031852;28;19931;-62
2022/05/16 00:16:25;;;;;;;;;;;13.80;99.90;;;;;;5039152;28;19994;-62
2022/05/16 00:18:51;;;;;;;;;;;13.70;99.90;;;;;;5044712;28;19919;-62
2022/05/16 00:21:17;;;;;;;;;;;13.60;99.90;;;;;;5030861;28;20594;-62
2022/05/16 00:23:42;;;;;;;;;;;13.40;99.90;;;;;;5034940;28;19924;-62
2022/05/16 00:26:08;;;;;;;;;;;13.40;99.90;;;;;;5037823;28;19913;-62
2022/05/16 00:28:33;;;;;;;;;;;13.50;99.90;;;;;;5034270;28;20453;-62
2022/05/16 00:30:59;;;;;;;;;;;13.60;99.90;;;;;;5037090;28;19925;-62
2022/05/16 00:33:24;;;;;;;;;;;13.60;99.90;;;;;;5054635;28;19956;-62
2022/05/16 00:35:50;;;;;;;;;;;13.50;99.90;;;;;;5030538;28;19921;-62
2022/05/16 00:38:15;;;;;;;;;;;13.50;99.90;;;;;;5036592;28;19912;-62
2022/05/16 00:40:41;;;;;;;;;;;13.40;99.90;;;;;;5031843;28;19924;-62
2022/05/16 00:43:08;;;;;;;;;;;13.30;99.90;;;;;;5033066;28;19983;-62
2022/05/16 00:45:34;;;;;;;;;;;13.20;99.90;;;;;;5031694;28;19917;-62
2022/05/16 00:48:00;;;;;;;;;;;13.10;99.90;;;;;;5035563;28;20015;-62
2022/05/16 00:50:26;;;;;;;;;;;13.20;99.90;;;;;;5032169;28;19956;-62
2022/05/16 00:52:52;;;;;;;;;;;13.10;99.90;;;;;;5038553;28;19974;-62
2022/05/16 00:55:20;;;;;;;;;;;13.10;99.90;;;;;;5036554;28;19956;-62
2022/05/16 00:57:48;;;;;;;;;;;13.10;99.90;;;;;;5033533;28;19913;-62
2022/05/16 01:00:19;;;;;;;;;;;13.10;99.90;;;;;;5036469;28;20276;-61
2022/05/16 01:05:34;;;;;;;;;;;13.40;99.90;;;;;;5037734;28;19915;-62
2022/05/16 01:08:02;;;;;;;;;;;13.60;99.90;;;;;;5052124;28;20011;-62
2022/05/16 01:10:28;;;;;;;;;;;13.60;99.90;;;;;;5041467;28;19908;-62
2022/05/16 01:12:53;;;;;;;;;;;13.50;99.90;;;;;;5049736;28;19920;-62
2022/05/16 01:15:31;;;;;;;;;;;13.40;99.90;;;;;;5031988;28;19921;-62
2022/05/16 01:17:56;;;;;;;;;;;13.40;99.90;;;;;;5033823;28;19913;-62
2022/05/16 01:20:22;;;;;;;;;;;13.40;99.90;;;;;;5031212;28;19923;-62
2022/05/16 01:22:49;;;;;;;;;;;13.40;99.90;;;;;;5037625;28;19913;-62
2022/05/16 01:25:28;;;;;;;;;;;13.40;99.90;;;;;;5032782;28;19952;-62
2022/05/16 01:27:55;;;;;;;;;;;13.60;99.90;;;;;;5032677;28;19913;-62
2022/05/16 01:30:36;;;;;;;;;;;13.70;99.90;;;;;;5029830;28;20476;-62
2022/05/16 01:33:02;;;;;;;;;;;13.70;99.90;;;;;;5036294;28;19981;-62
2022/05/16 01:35:29;;;;;;;;;;;13.60;99.90;;;;;;5039928;28;19920;-62
2022/05/16 01:40:39;;;;;;;;;;;13.50;99.90;;;;;;5039611;28;19919;-62
2022/05/16 01:43:05;;;;;;;;;;;13.50;99.90;;;;;;5034724;28;19916;-62
2022/05/16 01:45:31;;;;;;;;;;;13.40;99.90;;;;;;5035314;28;20427;-62
2022/05/16 01:47:57;;;;;;;;;;;13.30;99.90;;;;;;5038014;28;19917;-62
2022/05/16 01:50:22;;;;;;;;;;;13.20;99.90;;;;;;5037226;28;20156;-62
2022/05/16 01:52:48;;;;;;;;;;;13.10;99.90;;;;;;5041175;28;19923;-62
2022/05/16 01:55:14;;;;;;;;;;;13.10;99.90;;;;;;5038303;28;20325;-62
2022/05/16 01:57:39;;;;;;;;;;;13.20;99.90;;;;;;5037108;28;19917;-62
2022/05/16 02:00:06;;;;;;;;;;;13.10;99.90;;;;;;5033404;28;19942;-62
2022/05/16 02:02:32;;;;;;;;;;;13.20;99.90;;;;;;5043198;28;19919;-62
2022/05/16 02:04:57;;;;;;;;;;;13.20;99.90;;;;;;5036781;28;20011;-62
2022/05/16 02:07:23;;;;;;;;;;;13.30;99.90;;;;;;5035797;28;19913;-62
2022/05/16 02:09:48;;;;;;;;;;;13.30;99.90;;;;;;5038329;28;19913;-62
2022/05/16 02:12:14;;;;;;;;;;;13.20;99.90;;;;;;5033793;28;19921;-62
2022/05/16 02:14:40;;;;;;;;;;;13.20;99.90;;;;;;5035624;28;19924;-62
2022/05/16 02:17:05;;;;;;;;;;;13.20;99.90;;;;;;5040338;28;19912;-62
2022/05/16 02:19:30;;;;;;;;;;;13.20;99.90;;;;;;5039157;28;20432;-62
2022/05/16 02:24:40;;;;;;;;;;;13.40;99.90;;;;;;5041523;28;19920;-62
2022/05/16 02:27:07;;;;;;;;;;;13.30;99.90;;;;;;5040312;28;20381;-62
2022/05/16 02:29:34;;;;;;;;;;;13.30;99.90;;;;;;5034141;28;19918;-62
2022/05/16 02:32:00;;;;;;;;;;;13.20;99.90;;;;;;5038489;28;20288;-62
2022/05/16 02:34:25;;;;;;;;;;;13.20;99.90;;;;;;5038830;28;19917;-62
2022/05/16 02:36:52;;;;;;;;;;;13.20;99.90;;;;;;5035729;28;19913;-62
2022/05/16 02:39:18;;;;;;;;;;;13.30;99.90;;;;;;5035596;28;19944;-62
2022/05/16 02:41:43;;;;;;;;;;;13.30;99.90;;;;;;5058455;28;19977;-62
2022/05/16 02:44:09;;;;;;;;;;;13.20;99.90;;;;;;5036939;28;19956;-62
2022/05/16 02:46:34;;;;;;;;;;;13.10;99.90;;;;;;5043202;28;20067;-62
2022/05/16 02:49:00;;;;;;;;;;;13.10;99.90;;;;;;5038041;28;20310;-62
2022/05/16 02:51:26;;;;;;;;;;;13.10;99.90;;;;;;5038973;28;19994;-62
2022/05/16 02:53:51;;;;;;;;;;;13.00;99.90;;;;;;5042696;28;19912;-62
2022/05/16 02:56:17;;;;;;;;;;;13.00;99.90;;;;;;5040303;28;20012;-62
2022/05/16 02:58:43;;;;;;;;;;;13.10;99.90;;;;;;5039746;28;20402;-62
2022/05/16 03:01:10;;;;;;;;;;;13.00;99.90;;;;;;5037357;28;20428;-62
2022/05/16 03:03:35;;;;;;;;;;;13.00;99.90;;;;;;5039353;28;19923;-62
2022/05/16 03:06:01;;;;;;;;;;;12.90;99.90;;;;;;5038913;28;19912;-62
2022/05/16 03:08:26;;;;;;;;;;;13.10;99.90;;;;;;5039005;28;19913;-62
2022/05/16 03:10:52;;;;;;;;;;;13.10;99.90;;;;;;5037843;28;19917;-62
2022/05/16 03:13:17;;;;;;;;;;;13.10;99.90;;;;;;5037736;28;20004;-62
2022/05/16 03:15:43;;;;;;;;;;;13.20;99.90;;;;;;5038018;28;19921;-62
2022/05/16 03:18:08;;;;;;;;;;;13.00;99.90;;;;;;5048062;28;19913;-62
2022/05/16 03:20:34;;;;;;;;;;;13.00;99.90;;;;;;5036025;28;19979;-62
2022/05/16 03:22:59;;;;;;;;;;;12.90;99.90;;;;;;5040523;28;19912;-62
2022/05/16 03:25:25;;;;;;;;;;;13.00;99.90;;;;;;5039042;28;19912;-62
2022/05/16 03:27:50;;;;;;;;;;;12.90;99.90;;;;;;5036180;28;19913;-62
2022/05/16 03:30:16;;;;;;;;;;;12.90;99.90;;;;;;5037457;28;19959;-62
2022/05/16 03:32:41;;;;;;;;;;;12.80;99.90;;;;;;5038419;28;19912;-62
2022/05/16 03:35:07;;;;;;;;;;;12.80;99.90;;;;;;5039445;28;20019;-62
2022/05/16 03:37:33;;;;;;;;;;;12.70;99.90;;;;;;5039949;28;19917;-62
2022/05/16 03:42:43;;;;;;;;;;;12.90;99.90;;;;;;5035345;28;19928;-62
2022/05/16 03:45:10;;;;;;;;;;;12.80;99.90;;;;;;5034911;28;19917;-62
2022/05/16 03:47:35;;;;;;;;;;;12.80;99.90;;;;;;5051754;28;19913;-62
2022/05/16 03:50:00;;;;;;;;;;;13.00;99.90;;;;;;5051940;28;19920;-62
2022/05/16 03:52:26;;;;;;;;;;;12.90;99.90;;;;;;5038750;28;19920;-62
2022/05/16 03:54:52;;;;;;;;;;;13.00;99.90;;;;;;5044334;28;19967;-62
2022/05/16 03:57:17;;;;;;;;;;;13.00;99.90;;;;;;5051061;28;19919;-62
2022/05/16 03:59:43;;;;;;;;;;;12.90;99.90;;;;;;5035122;28;20047;-62
2022/05/16 04:02:08;;;;;;;;;;;12.90;99.90;;;;;;5038322;28;19920;-62
2022/05/16 04:04:34;;;;;;;;;;;13.00;99.90;;;;;;5036280;28;20344;-62
2022/05/16 04:06:59;;;;;;;;;;;13.00;99.90;;;;;;5038585;28;19940;-62
2022/05/16 04:09:25;;;;;;;;;;;13.10;99.90;;;;;;5038809;28;20352;-62
2022/05/16 04:11:50;;;;;;;;;;;13.00;99.90;;;;;;5035898;28;19995;-62
2022/05/16 04:14:16;;;;;;;;;;;13.10;99.90;;;;;;5031893;28;20078;-62
2022/05/16 04:16:41;;;;;;;;;;;13.10;99.90;;;;;;5036980;28;19913;-64
2022/05/16 04:19:07;;;;;;;;;;;13.00;99.90;;;;;;5037780;28;19913;-65
2022/05/16 04:21:37;;;;;;;;;;;13.00;99.90;;;;;;5038565;28;20062;-64
2022/05/16 04:24:05;;;;;;;;;;;13.00;99.90;;;;;;5040702;28;20463;-64
2022/05/16 04:26:30;;;;;;;;;;;12.90;99.90;;;;;;5035367;28;20014;-64
2022/05/16 04:28:57;;;;;;;;;;;12.90;99.90;;;;;;5035479;28;19917;-64
2022/05/16 04:31:23;;;;;;;;;;;12.90;99.90;;;;;;5026792;28;19928;-64
2022/05/16 04:33:48;;;;;;;;;;;13.00;99.90;;;;;;5034873;28;19912;-64
2022/05/16 04:36:14;;;;;;;;;;;13.20;99.90;;;;;;5040485;28;19920;-64
2022/05/16 04:38:39;;;;;;;;;;;13.10;99.90;;;;;;5035715;28;19912;-64
2022/05/16 04:43:50;;;;;;;;;;;13.10;99.90;;;;;;5037471;28;20455;-64
2022/05/16 04:46:15;;;;;;;;;;;13.30;99.90;;;;;;5034153;28;20003;-64
2022/05/16 04:48:41;;;;;;;;;;;13.50;99.90;;;;;;5032208;28;20301;-64
2022/05/16 04:51:06;;;;;;;;;;;13.50;99.90;;;;;;5035001;28;19913;-64
2022/05/16 04:53:32;;;;;;;;;;;13.60;99.90;;;;;;5037428;28;19917;-64
2022/05/16 04:55:58;;;;;;;;;;;13.50;99.90;;;;;;5037276;28;20352;-64
2022/05/16 04:58:23;;;;;;;;;;;13.70;99.90;;;;;;5039569;28;20284;-64
2022/05/16 05:00:49;;;;;;;;;;;13.80;99.90;;;;;;5037765;28;19945;-64
2022/05/16 05:03:15;;;;;;;;;;;13.80;99.90;;;;;;5034619;28;19919;-62
2022/05/16 05:05:40;;;;;;;;;;;13.90;99.90;;;;;;5033970;28;20437;-62
2022/05/16 05:08:06;;;;;;;;;;;14.00;99.90;;;;;;5040668;28;20602;-62
2022/05/16 05:16:07;;;;;;;;;;;14.60;99.90;;;;;;5039242;28;19948;-62
2022/05/16 05:18:33;;;;;;;;;;;14.60;99.90;;;;;;5036848;28;19933;-62
2022/05/16 05:20:59;;;;;;;;;;;14.80;99.90;;;;;;5027501;28;19913;-62
2022/05/16 05:23:25;;;;;;;;;;;14.90;99.90;;;;;;5032870;28;19913;-62
2022/05/16 05:25:51;;;;;;;;;;;15.00;99.90;;;;;;5030737;28;19920;-62
2022/05/16 05:28:16;;;;;;;;;;;15.10;99.90;;;;;;5025596;28;20359;-62
2022/05/16 05:30:42;;;;;;;;;;;15.10;99.90;;;;;;5033063;28;19924;-62
2022/05/16 05:33:07;;;;;;;;;;;15.10;99.90;;;;;;5029404;28;19917;-62
2022/05/16 05:35:33;;;;;;;;;;;15.30;99.90;;;;;;5035563;28;19929;-62
2022/05/16 05:37:58;;;;;;;;;;;15.40;99.90;;;;;;5037883;28;19967;-62
2022/05/16 05:40:24;;;;;;;;;;;15.60;99.90;;;;;;5031827;28;20012;-62
2022/05/16 05:42:50;;;;;;;;;;;15.70;99.90;;;;;;5032926;28;20288;-62
2022/05/16 05:45:16;;;;;;;;;;;16.00;99.90;;;;;;5031536;28;20027;-62
2022/05/16 05:47:41;;;;;;;;;;;16.10;99.90;;;;;;5040524;28;19913;-62
2022/05/16 05:50:07;;;;;;;;;;;16.30;99.90;;;;;;5035194;28;19914;-62
2022/05/16 05:52:33;;;;;;;;;;;16.70;99.90;;;;;;5036398;28;19940;-62
2022/05/16 05:54:58;;;;;;;;;;;17.00;99.90;;;;;;5045369;28;19917;-62
2022/05/16 05:57:27;;;;;;;;;;;17.40;99.90;;;;;;5036047;28;19917;-62
2022/05/16 05:59:53;;;;;;;;;;;17.70;99.90;;;;;;5040723;28;19916;-62
2022/05/16 06:02:19;;;;;;;;;;;18.10;99.90;;;;;;5034341;28;19913;-62
2022/05/16 06:04:45;;;;;;;;;;;18.40;99.90;;;;;;5050766;28;19912;-62
2022/05/16 06:07:10;;;;;;;;;;;18.50;99.90;;;;;;5035263;28;20132;-62
2022/05/16 06:09:36;;;;;;;;;;;18.80;99.90;;;;;;5040428;28;20164;-63
2022/05/16 06:12:05;;;;;;;;;;;19.00;99.90;;;;;;5031718;28;19924;-64
2022/05/16 06:14:30;;;;;;;;;;;19.30;99.90;;;;;;5033251;28;19978;-64
2022/05/16 06:16:56;;;;;;;;;;;19.30;99.90;;;;;;5032798;28;20449;-64
2022/05/16 06:19:22;;;;;;;;;;;19.20;99.90;;;;;;5032560;28;19924;-64
2022/05/16 06:21:48;;;;;;;;;;;18.70;99.90;;;;;;5033348;28;20381;-64
2022/05/16 06:26:59;;;;;;;;;;;18.50;99.90;;;;;;5038251;28;20694;-64
2022/05/16 06:29:25;;;;;;;;;;;18.70;99.90;;;;;;5039271;28;19945;-64
2022/05/16 06:31:51;;;;;;;;;;;18.90;99.90;;;;;;5041114;28;19921;-64
2022/05/16 06:34:17;;;;;;;;;;;19.40;99.90;;;;;;5044749;28;19928;-64
2022/05/16 06:36:42;;;;;;;;;;;19.40;99.90;;;;;;5029600;28;19917;-64
2022/05/16 06:39:08;;;;;;;;;;;19.10;99.90;;;;;;5027453;28;20349;-64
2022/05/16 06:41:34;;;;;;;;;;;19.50;99.90;;;;;;5027826;28;20510;-64
2022/05/16 06:44:01;;;;;;;;;;;19.10;99.90;;;;;;5023697;28;19964;-64
2022/05/16 06:46:26;;;;;;;;;;;19.30;99.90;;;;;;5031448;28;19912;-63
2022/05/16 06:48:52;;;;;;;;;;;18.80;99.90;;;;;;5033262;28;20648;-64
2022/05/16 06:51:18;;;;;;;;;;;18.70;99.90;;;;;;5041687;28;19913;-64
2022/05/16 06:53:44;;;;;;;;;;;18.80;99.90;;;;;;5032220;28;19920;-64
2022/05/16 06:56:09;;;;;;;;;;;19.30;99.90;;;;;;5035182;28;20011;-64
2022/05/16 06:58:35;;;;;;;;;;;19.20;99.90;;;;;;5035475;28;19917;-64
2022/05/16 07:01:00;;;;;;;;;;;19.40;99.90;;;;;;5035632;28;19974;-63
2022/05/16 07:03:26;;;;;;;;;;;19.40;99.90;;;;;;5034328;28;20419;-64
2022/05/16 07:05:51;;;;;;;;;;;19.40;99.90;;;;;;5036732;28;19917;-64
2022/05/16 07:08:19;;;;;;;;;;;19.80;99.90;;;;;;5038128;28;19917;-64
2022/05/16 07:10:46;;;;;;;;;;;20.00;99.90;;;;;;5041863;28;19924;-64
2022/05/16 07:13:12;;;;;;;;;;;20.30;99.90;;;;;;5043394;28;20387;-64
2022/05/16 07:15:38;;;;;;;;;;;20.30;99.90;;;;;;5043290;28;20016;-64
2022/05/16 07:18:03;;;;;;;;;;;20.40;99.90;;;;;;5034872;28;19913;-64
2022/05/16 07:20:29;;;;;;;;;;;20.30;99.90;;;;;;5039469;28;19909;-64
2022/05/16 07:22:58;;;;;;;;;;;20.40;99.90;;;;;;5032369;28;19917;-64
2022/05/16 07:25:25;;;;;;;;;;;21.10;99.90;;;;;;5030992;28;19917;-63
2022/05/16 07:27:56;;;;;;;;;;;21.40;99.90;;;;;;5034712;28;19913;-64
2022/05/16 07:30:29;;;;;;;;;;;21.70;99.90;;;;;;5037083;28;20606;-64
2022/05/16 07:32:55;;;;;;;;;;;21.60;99.90;;;;;;5044377;28;19925;-64
2022/05/16 07:35:22;;;;;;;;;;;22.10;99.90;;;;;;5033135;28;19994;-64
2022/05/16 07:37:48;;;;;;;;;;;22.50;99.90;;;;;;5036367;28;19924;-64
2022/05/16 07:40:14;;;;;;;;;;;22.50;98.70;;;;;;5033268;28;19921;-64
2022/05/16 07:42:39;;;;;;;;;;;22.60;98.00;;;;;;5039582;28;20542;-64
2022/05/16 07:45:06;;;;;;;;;;;22.80;97.90;;;;;;5033063;28;19929;-64
2022/05/16 07:47:32;;;;;;;;;;;22.70;97.70;;;;;;5033144;28;19963;-64
2022/05/16 07:49:58;;;;;;;;;;;23.00;97.80;;;;;;5041032;28;20292;-64
2022/05/16 07:52:24;;;;;;;;;;;22.90;97.00;;;;;;5052875;28;19921;-64
2022/05/16 07:54:49;;;;;;;;;;;23.00;97.00;;;;;;5052993;28;19928;-64
2022/05/16 07:57:15;;;;;;;;;;;23.20;96.70;;;;;;5049995;28;19921;-64
2022/05/16 07:59:41;;;;;;;;;;;23.40;96.70;;;;;;5051049;28;19970;-64
2022/05/16 08:02:08;;;;;;;;;;;23.40;96.80;;;;;;5039594;28;19928;-64
2022/05/16 08:04:33;;;;;;;;;;;23.50;96.80;;;;;;5032047;28;19928;-64
2022/05/16 08:06:59;;;;;;;;;;;23.50;96.70;;;;;;5032118;28;19913;-64
2022/05/16 08:12:10;;;;;;;;;;;23.70;95.80;;;;;;5033678;28;19928;-64
2022/05/16 08:14:36;;;;;;;;;;;23.50;96.20;;;;;;5035806;28;19924;-64
2022/05/16 08:17:02;;;;;;;;;;;23.50;96.40;;;;;;5030956;28;20380;-64
2022/05/16 08:19:29;;;;;;;;;;;23.30;95.40;;;;;;5031073;28;19924;-64
2022/05/16 08:21:55;;;;;;;;;;;23.10;95.70;;;;;;5033989;28;20272;-64
2022/05/16 08:24:20;;;;;;;;;;;22.90;95.90;;;;;;5032974;28;19924;-64
2022/05/16 08:26:46;;;;;;;;;;;22.90;96.00;;;;;;5032703;28;19969;-64
2022/05/16 08:29:12;;;;;;;;;;;22.50;96.70;;;;;;5048647;28;19917;-64
2022/05/16 08:31:37;;;;;;;;;;;22.60;97.00;;;;;;5034179;28;19992;-64
2022/05/16 08:34:03;;;;;;;;;;;22.60;97.40;;;;;;5042671;28;19999;-65
2022/05/16 08:42:02;;;;;;;;;;;22.70;96.80;;;;;;5035115;28;19967;-63
2022/05/16 08:44:39;;;;;;;;;;;23.10;96.70;;;;;;5037581;28;19921;-63
2022/05/16 08:47:13;;;;;;;;;;;23.30;96.80;;;;;;5031033;28;20396;-63
2022/05/16 08:49:39;;;;;;;;;;;23.20;96.50;;;;;;5030164;28;19917;-63
2022/05/16 08:52:10;;;;;;;;;;;23.10;96.90;;;;;;5031410;28;19909;-64
2022/05/16 08:54:48;;;;;;;;;;;23.10;97.20;;;;;;5029191;28;19967;-64
2022/05/16 08:57:25;;;;;;;;;;;23.30;97.30;;;;;;5034103;28;20452;-64
2022/05/16 08:59:55;;;;;;;;;;;23.20;97.00;;;;;;5034200;28;19917;-63
2022/05/16 09:02:23;;;;;;;;;;;23.10;97.90;;;;;;5027351;28;20023;-63
2022/05/16 09:04:55;;;;;;;;;;;23.20;97.90;;;;;;5028247;28;20424;-63
2022/05/16 09:07:27;;;;;;;;;;;23.40;97.30;;;;;;5030300;28;20403;-63
2022/05/16 09:10:12;;;;;;;;;;;23.30;97.20;;;;;;5028255;28;19956;-64
2022/05/16 09:12:56;;;;;;;;;;;23.20;97.40;;;;;;5030590;28;19944;-63
2022/05/16 09:15:23;;;;;;;;;;;23.20;97.80;;;;;;5040415;28;19957;-63
2022/05/16 09:17:48;;;;;;;;;;;23.30;97.60;;;;;;5029129;28;19913;-63
2022/05/16 09:20:20;;;;;;;;;;;23.40;98.00;;;;;;5028548;28;19917;-64
2022/05/16 09:23:11;;;;;;;;;;;23.20;98.40;;;;;;5041482;28;19924;-64
2022/05/16 09:25:52;;;;;;;;;;;23.60;97.70;;;;;;5026700;28;20616;-64
2022/05/16 09:28:37;;;;;;;;;;;23.70;96.40;;;;;;5030146;28;19960;-64
2022/05/16 09:31:15;;;;;;;;;;;24.00;97.00;;;;;;5029604;28;19932;-63
2022/05/16 09:33:43;;;;;;;;;;;24.10;96.60;;;;;;5036098;28;19983;-64
2022/05/16 09:36:10;;;;;;;;;;;24.30;96.40;;;;;;5038755;28;19921;-64
2022/05/16 09:38:36;;;;;;;;;;;24.40;96.60;;;;;;5033611;28;19920;-64
2022/05/16 09:41:01;;;;;;;;;;;23.80;97.60;;;;;;5034232;28;19913;-64
2022/05/16 09:43:30;;;;;;;;;;;23.80;98.10;;;;;;5033097;28;19944;-64
2022/05/16 09:46:01;;;;;;;;;;;23.70;97.80;;;;;;5033987;28;20602;-63
2022/05/16 09:48:26;;;;;;;;;;;23.90;97.20;;;;;;5035874;28;20399;-64
2022/05/16 09:51:03;;;;;;;;;;;23.70;97.70;;;;;;5035614;28;20040;-64
2022/05/16 09:53:29;;;;;;;;;;;23.70;98.10;;;;;;5034646;28;19913;-64
2022/05/16 09:55:57;;;;;;;;;;;23.70;98.80;;;;;;5043874;28;20355;-64
2022/05/16 09:58:34;;;;;;;;;;;23.70;98.70;;;;;;5028961;28;19931;-64
2022/05/16 10:01:11;;;;;;;;;;;23.60;98.10;;;;;;5032751;28;19920;-64
2022/05/16 10:03:42;;;;;;;;;;;23.30;99.00;;;;;;5032041;28;20563;-63
2022/05/16 10:06:09;;;;;;;;;;;23.30;98.50;;;;;;5030806;28;20431;-64
2022/05/16 10:08:38;;;;;;;;;;;23.20;99.10;;;;;;5037617;28;19940;-64
2022/05/16 10:11:23;;;;;;;;;;;23.10;99.10;;;;;;5034011;28;20004;-64
2022/05/16 10:13:49;;;;;;;;;;;23.00;99.60;;;;;;5029862;28;19927;-64
2022/05/16 10:16:15;;;;;;;;;;;22.70;99.90;;;;;;5041556;28;19925;-64
2022/05/16 10:18:55;;;;;;;;;;;23.10;99.90;;;;;;5035943;28;19948;-64
2022/05/16 10:21:26;;;;;;;;;;;23.00;99.90;;;;;;5040664;28;19920;-64
2022/05/16 10:23:52;;;;;;;;;;;23.00;99.90;;;;;;5043825;28;19919;-64
2022/05/16 10:26:20;;;;;;;;;;;23.10;99.90;;;;;;5034813;28;19924;-63
2022/05/16 10:28:54;;;;;;;;;;;22.90;99.90;;;;;;5037368;28;19942;-64
2022/05/16 10:34:15;;;;;;;;;;;23.20;99.90;;;;;;5043586;28;20059;-64
2022/05/16 10:36:43;;;;;;;;;;;23.50;99.90;;;;;;5039491;28;19921;-64
2022/05/16 10:39:09;;;;;;;;;;;23.70;99.90;;;;;;5031511;28;19917;-65
2022/05/16 10:41:39;;;;;;;;;;;24.70;99.90;;;;;;5042251;28;19934;-64
2022/05/16 10:44:11;;;;;;;;;;;25.40;99.90;;;;;;5038052;28;19956;-64
2022/05/16 10:46:39;;;;;;;;;;;24.50;99.90;;;;;;5028515;28;19917;-64
2022/05/16 10:49:09;;;;;;;;;;;24.20;99.90;;;;;;5037015;28;19917;-64
2022/05/16 10:51:34;;;;;;;;;;;25.10;99.70;;;;;;5033598;28;19924;-64
2022/05/16 10:54:09;;;;;;;;;;;26.00;99.90;;;;;;5031267;28;20336;-64
2022/05/16 10:56:48;;;;;;;;;;;27.40;96.70;;;;;;5030627;28;19946;-65
2022/05/16 10:59:15;;;;;;;;;;;30.10;93.70;;;;;;5037244;28;19937;-64
2022/05/16 11:01:40;;;;;;;;;;;31.00;91.40;;;;;;5030717;28;20011;-64
2022/05/16 11:04:27;;;;;;;;;;;30.90;91.00;;;;;;5040494;28;20042;-64
2022/05/16 11:06:56;;;;;;;;;;;31.10;90.20;;;;;;5032880;28;19975;-64
2022/05/16 11:09:40;;;;;;;;;;;31.90;89.80;;;;;;5039449;28;19923;-64
2022/05/16 11:12:12;;;;;;;;;;;31.80;88.20;;;;;;5036744;28;19916;-64
2022/05/16 11:14:38;;;;;;;;;;;33.20;86.00;;;;;;5035680;28;20317;-64
2022/05/16 11:17:17;;;;;;;;;;;32.90;81.80;;;;;;5037902;28;19921;-64
2022/05/16 11:19:50;;;;;;;;;;;31.80;83.70;;;;;;5035946;28;19913;-64
2022/05/16 11:22:29;;;;;;;;;;;31.40;84.60;;;;;;5037173;28;20012;-64
2022/05/16 11:24:55;;;;;;;;;;;30.40;87.10;;;;;;5036348;28;20031;-64
2022/05/16 11:27:27;;;;;;;;;;;30.90;86.30;;;;;;5034599;28;19964;-64
2022/05/16 11:30:00;;;;;;;;;;;31.40;84.40;;;;;;5043138;28;20428;-64
2022/05/16 11:32:37;;;;;;;;;;;31.30;84.60;;;;;;5031808;28;20787;-64
2022/05/16 11:35:05;;;;;;;;;;;30.50;86.90;;;;;;5037734;28;19928;-64
2022/05/16 11:37:51;;;;;;;;;;;30.90;84.40;;;;;;5034150;28;19971;-64
2022/05/16 11:40:23;;;;;;;;;;;30.50;85.60;;;;;;5035174;28;19913;-64
2022/05/16 11:43:03;;;;;;;;;;;30.70;84.30;;;;;;5035050;28;19999;-64
2022/05/16 11:45:41;;;;;;;;;;;31.90;83.50;;;;;;5039140;28;20304;-64
2022/05/16 11:48:23;;;;;;;;;;;32.80;80.10;;;;;;5032558;28;19917;-64
2022/05/16 11:51:03;;;;;;;;;;;35.00;77.60;;;;;;5031145;28;19963;-64
2022/05/16 11:53:41;;;;;;;;;;;33.80;77.50;;;;;;5030534;28;19967;-64
2022/05/16 12:01:35;;;;;;;;;;;33.60;76.20;;;;;;5029951;28;19924;-64
2022/05/16 12:04:03;;;;;;;;;;;32.70;76.60;;;;;;5029275;28;20312;-64
2022/05/16 12:06:33;;;;;;;;;;;33.50;73.90;;;;;;5031288;28;19917;-64
2022/05/16 12:09:15;;;;;;;;;;;33.00;73.90;;;;;;5033562;28;20384;-64
2022/05/16 12:11:51;;;;;;;;;;;32.70;75.20;;;;;;5034632;28;19917;-64
2022/05/16 12:14:29;;;;;;;;;;;32.70;73.90;;;;;;5036549;28;20263;-64
2022/05/16 12:17:17;;;;;;;;;;;33.20;74.60;;;;;;5027982;28;19921;-64
2022/05/16 12:19:44;;;;;;;;;;;33.30;75.20;;;;;;5025349;28;19939;-64
2022/05/16 12:22:11;;;;;;;;;;;32.80;73.50;;;;;;5026495;28;19970;-63
2022/05/16 12:24:52;;;;;;;;;;;32.30;75.20;;;;;;5028831;28;19921;-63
2022/05/16 12:27:17;;;;;;;;;;;32.40;73.30;;;;;;5030760;28;19917;-63
2022/05/16 12:29:52;;;;;;;;;;;33.00;73.60;;;;;;5039476;28;20030;-64
2022/05/16 12:32:22;;;;;;;;;;;34.00;73.10;;;;;;5030630;28;20502;-64
2022/05/16 12:34:49;;;;;;;;;;;33.80;69.10;;;;;;5034139;28;19917;-64
2022/05/16 12:37:16;;;;;;;;;;;33.50;69.40;;;;;;5054434;28;19916;-63
2022/05/16 12:39:51;;;;;;;;;;;33.40;69.80;;;;;;5034240;28;19927;-64
2022/05/16 12:42:19;;;;;;;;;;;34.50;69.50;;;;;;5032425;28;20003;-64
2022/05/16 12:44:52;;;;;;;;;;;34.90;69.00;;;;;;5034020;28;19916;-63
2022/05/16 12:47:37;;;;;;;;;;;34.80;67.30;;;;;;5031831;28;19940;-64
2022/05/16 12:50:20;;;;;;;;;;;33.70;68.70;;;;;;5032031;28;20011;-64
2022/05/16 12:52:46;;;;;;;;;;;32.30;70.80;;;;;;5023604;28;19924;-64
2022/05/16 12:55:31;;;;;;;;;;;32.90;70.90;;;;;;5026099;28;19921;-64
2022/05/16 12:57:59;;;;;;;;;;;32.10;72.40;;;;;;5029352;28;19917;-64
2022/05/16 13:00:39;;;;;;;;;;;31.30;74.20;;;;;;5035217;28;19921;-64
2022/05/16 13:03:10;;;;;;;;;;;30.90;73.50;;;;;;5030103;28;20035;-64
2022/05/16 13:05:36;;;;;;;;;;;30.00;74.80;;;;;;5032220;28;20388;-64
2022/05/16 13:08:05;;;;;;;;;;;30.70;72.20;;;;;;5027872;28;19924;-64
2022/05/16 13:10:57;;;;;;;;;;;30.70;73.30;;;;;;5050678;28;20007;-64
2022/05/16 13:13:45;;;;;;;;;;;30.90;75.00;;;;;;5039459;28;19929;-65
2022/05/16 13:16:23;;;;;;;;;;;31.60;73.90;;;;;;5027810;28;19917;-64
2022/05/16 13:18:53;;;;;;;;;;;31.70;74.00;;;;;;5030031;28;19917;-64
2022/05/16 13:21:20;;;;;;;;;;;32.20;73.80;;;;;;5031414;28;19916;-64
2022/05/16 13:23:46;;;;;;;;;;;31.90;74.20;;;;;;5027225;28;20376;-64
2022/05/16 13:31:43;;;;;;;;;;;29.90;77.20;;;;;;5026198;28;19932;-64
2022/05/16 13:34:10;;;;;;;;;;;29.70;78.10;;;;;;5032217;28;19924;-64
2022/05/16 13:36:36;;;;;;;;;;;29.20;79.00;;;;;;5028224;28;19960;-64
2022/05/16 13:39:06;;;;;;;;;;;28.60;80.40;;;;;;5031886;28;19963;-64
2022/05/16 13:41:32;;;;;;;;;;;28.50;80.80;;;;;;5035350;28;19917;-64
2022/05/16 13:43:58;;;;;;;;;;;27.90;81.60;;;;;;5031285;28;19929;-64
2022/05/16 13:46:25;;;;;;;;;;;27.40;83.20;;;;;;5033838;28;19962;-64
2022/05/16 13:49:07;;;;;;;;;;;27.20;84.50;;;;;;5031017;28;20428;-64
2022/05/16 13:51:34;;;;;;;;;;;26.90;84.50;;;;;;5029293;28;19966;-63
2022/05/16 13:54:06;;;;;;;;;;;27.00;84.20;;;;;;5028687;28;20741;-63
2022/05/16 13:56:39;;;;;;;;;;;26.60;86.60;;;;;;5042350;28;19944;-63
2022/05/16 13:59:05;;;;;;;;;;;26.30;88.40;;;;;;5041569;28;19959;-63
2022/05/16 14:01:31;;;;;;;;;;;25.60;89.40;;;;;;5029878;28;19917;-63
2022/05/16 14:03:59;;;;;;;;;;;24.70;91.40;;;;;;5032944;28;20008;-63
2022/05/16 14:06:30;;;;;;;;;;;25.00;91.50;;;;;;5036261;28;19995;-63
2022/05/16 14:09:17;;;;;;;;;;;24.90;91.60;;;;;;5035097;28;19913;-63
2022/05/16 14:11:43;;;;;;;;;;;24.80;92.20;;;;;;5023258;28;19931;-64
2022/05/16 14:14:11;;;;;;;;;;;24.40;93.20;;;;;;5031953;28;20044;-63
2022/05/16 14:16:38;;;;;;;;;;;24.30;94.10;;;;;;5037881;28;20426;-63
2022/05/16 14:19:06;;;;;;;;;;;23.90;95.10;;;;;;5034504;28;20952;-63
2022/05/16 14:21:51;;;;;;;;;;;23.50;96.20;;;;;;5032642;28;19960;-63
2022/05/16 14:24:20;;;;;;;;;;;23.40;97.10;;;;;;5030629;28;19948;-63
2022/05/16 14:26:48;;;;;;;;;;;23.50;97.90;;;;;;5037788;28;20015;-63
2022/05/16 14:29:16;;;;;;;;;;;23.30;99.90;;;;;;5036660;28;19917;-63
2022/05/16 14:31:44;;;;;;;;;;;22.80;99.90;;;;;;5030639;28;19964;-63
2022/05/16 14:34:29;;;;;;;;;;;21.80;99.90;;;;;;5036593;28;19928;-63
2022/05/16 14:37:06;;;;;;;;;;;20.80;99.90;;;;;;5033119;28;19960;-63
2022/05/16 14:39:39;;;;;;;;;;;19.90;99.90;;;;;;5038961;28;19913;-63
2022/05/16 14:42:10;;;;;;;;;;;19.20;99.90;;;;;;5032169;28;20360;-63
2022/05/16 14:44:37;;;;;;;;;;;18.80;99.90;;;;;;5037515;28;19921;-63
2022/05/16 14:47:39;;;;;;;;;;;18.50;99.90;;;;;;5035108;28;19920;-63
2022/05/16 14:50:14;;;;;;;;;;;18.30;99.90;;;;;;5032067;28;19921;-61
2022/05/16 14:53:04;;;;;;;;;;;18.00;99.90;;;;;;5027638;28;20003;-61
2022/05/16 14:55:33;;;;;;;;;;;17.90;99.90;;;;;;5030811;28;19928;-61
2022/05/16 14:58:00;;;;;;;;;;;17.70;99.90;;;;;;5031202;28;19917;-61
2022/05/16 15:05:59;;;;;;;;;;;17.60;99.90;;;;;;5032622;28;19924;-61
2022/05/16 15:08:26;;;;;;;;;;;17.70;99.90;;;;;;5039293;28;19944;-61
2022/05/16 15:10:52;;;;;;;;;;;17.60;99.90;;;;;;5033650;28;19943;-62
2022/05/16 15:13:17;;;;;;;;;;;17.70;99.90;;;;;;5040166;28;19921;-62
2022/05/16 15:15:43;;;;;;;;;;;17.70;99.90;;;;;;5032668;28;19925;-62